New York, NY (10026)

11:53 AM EST on March 01, 2015 (GMT -0500)
Marcus Garvey Park | Change Station
CLOSE
Current Station
Personal Weather Station
Location: New York, NY
Elevation: 36 ft
Nearby Weather Stations
Active Advisory: Winter Weather Advisory Active Notice: Record Report

Elev 36 ft 40.80 °N, 73.94 °W | Updated 5 seconds ago

Overcast
Overcast
31.6 °F
Feels Like 27 °F
N
4.9
Wind Variable Wind from South
Gusts 7.4 mph

Today
High -- | Low -- °F
--% Chance of Precip.
Yesterday
High -- | Low -- °F
Precip. -- in
6:30 AM 5:46 PM
Waxing Gibbous, 86% visible
Pressure 30.58 in
Visibility 8.0 miles
Clouds Mostly Cloudy 4600 ft
Overcast 6000 ft
Windchill 27 °F
Dew Point 4 °F
Humidity 31%
Rainfall 0.00 in
Snow Depth Not available.
UV 2.0 out of 12
Pollen .50 out of 12
Air Quality Not available.
Flu Activity Not available.
METAR KNYC 011651Z AUTO VRB05G17KT 8SM BKN046 OVC060 M01/M14 A3060 RMK AO2 SLP353 T10111144

More Conditions Fewer Conditions

Pressure 30.58 in
Visibility 8.0 miles
Clouds Mostly Cloudy 4600 ft
Overcast 6000 ft
Windchill 27 °F
Dew Point 4 °F
Humidity 31%
Rainfall 0.00 in
Snow Depth Not available.
UV 2.0 out of 12
Pollen .50 out of 12
Air Quality Not available.
Flu Activity Not available.
METAR KNYC 011651Z AUTO VRB05G17KT 8SM BKN046 OVC060 M01/M14 A3060 RMK AO2 SLP353 T10111144

More Conditions Fewer Conditions

10-Day Weather Forecast

Almanac

Astronomy

Mar. 01, 2015 Rise Set
Actual Time
Civil Twilight
Nautical Twilight
Astronomical Twilight
Moon
Length of Visible Light
Length of Day
Tomorrow will be .
, % of the Moon is Illuminated

Today's Extremes

State Highs State Lows

Community

WunderPhotos

Upload Photos

1,801,451 photos uploaded!

WunderBlogs® & News

Nearby

Air Quality

  Air Quality AQ Index Pollutant
Not available.

Snow Depth

Station Depth Elevation

Earthquake Activity

City Distance Mag. Time & Date
Minimum magnitude displayed is 2.5.

Coastal Water Temperatures

Place Temperature

Nearby Weather Stations

Winter Weather Advisory
Statement as of 10:11 AM EST on March 01, 2015

... Winter Weather Advisory remains in effect until 7 am EST
Monday...

* locations... New York City... nearby portions of northeast New
Jersey and Westchester County... and Long Island.

* Hazard types... snow and freezing rain.

* Accumulations... snow accumulation of 2 to 4 inches. Ice
accumulation up to a tenth of an inch.

* Visibilities... one half mile at times.

* Timing... snow will develop this afternoon... then mix with or
change to freezing rain this evening. Precipitation will taper
off after midnight tonight.

* Impacts... snow covered surfaces... coated with ice in areas...
will cause travel difficulties. The snow will also hide already
icy spots.

Precautionary/preparedness actions...

A Winter Weather Advisory means that periods of snow... sleet... or
freezing rain will cause travel difficulties. Be prepared for
slippery roads and limited visibilities... and use caution while
driving.